Time;durP1;ratioP1;P1;durP2;ratioP2;P2;SDS_P1;SDS_P2;PMS_P1;PMS_P2;Temp;Humidity;BMP_temperature;BMP_pressure;BME280_temperature;BME280_humidity;BME280_pressure;Samples;Min_cycle;Max_cycle;Signal;HPM_P1;HPM_P2
2022/03/03 00:01:23;;;;;;;;;;;;;;;0.16;86.79;99447.63;5052270;28;822;-60
2022/03/03 00:03:49;;;;;;;;;;;;;;;0.08;86.95;99437.66;5052473;28;843;-59
2022/03/03 00:06:15;;;;;;;;;;;;;;;-0.04;86.69;99436.56;5052089;28;1957;-59
2022/03/03 00:08:41;;;;;;;;;;;;;;;-0.13;86.95;99433.13;5052217;28;835;-59
2022/03/03 00:11:08;;;;;;;;;;;;;;;-0.20;86.90;99430.22;5052152;28;824;-59
2022/03/03 00:13:34;;;;;;;;;;;;;;;-0.36;86.77;99421.94;5052059;28;843;-59
2022/03/03 00:16:02;;;;;;;;;;;;;;;-0.41;87.38;99427.59;5051963;28;819;-59
2022/03/03 00:18:28;;;;;;;;;;;;;;;-0.40;87.46;99428.41;5052308;28;919;-59
2022/03/03 00:20:55;;;;;;;;;;;;;;;-0.49;87.14;99428.47;5051972;28;827;-59
2022/03/03 00:23:21;;;;;;;;;;;;;;;-0.52;87.48;99427.22;5051884;28;870;-59
2022/03/03 00:25:48;;;;;;;;;;;;;;;-0.54;87.64;99434.91;5051737;28;1885;-59
2022/03/03 00:28:14;;;;;;;;;;;;;;;-0.44;87.24;99431.78;5051805;28;799;-59
2022/03/03 00:30:40;;;;;;;;;;;;;;;-0.48;86.41;99425.44;5051758;28;1308;-59
2022/03/03 00:33:07;;;;;;;;;;;;;;;-0.55;87.28;99429.84;5050492;28;871;-59
2022/03/03 00:35:33;;;;;;;;;;;;;;;-0.52;87.11;99432.66;5051765;28;819;-59
2022/03/03 00:38:00;;;;;;;;;;;;;;;-0.66;86.86;99433.00;5051643;28;827;-59
2022/03/03 00:40:26;;;;;;;;;;;;;;;-0.74;87.34;99427.66;5050498;28;1412;-59
2022/03/03 00:42:53;;;;;;;;;;;;;;;-0.70;87.49;99429.38;5051306;28;1440;-59
2022/03/03 00:45:19;;;;;;;;;;;;;;;-0.76;87.64;99427.19;5051528;28;863;-59
2022/03/03 00:47:45;;;;;;;;;;;;;;;-0.76;87.31;99433.41;5051496;28;1969;-59
2022/03/03 00:50:12;;;;;;;;;;;;;;;-0.92;87.54;99430.53;5051565;28;880;-58
2022/03/03 00:52:38;;;;;;;;;;;;;;;-1.10;87.66;99429.13;5051503;28;834;-59
2022/03/03 00:55:05;;;;;;;;;;;;;;;-1.21;88.36;99428.75;5051542;28;846;-58
2022/03/03 00:57:31;;;;;;;;;;;;;;;-1.18;88.28;99435.41;5051861;28;834;-58
2022/03/03 00:59:59;;;;;;;;;;;;;;;-1.22;87.98;99429.84;5051692;28;838;-58
2022/03/03 01:02:26;;;;;;;;;;;;;;;-1.22;88.66;99424.44;5051693;28;870;-58
2022/03/03 01:04:52;;;;;;;;;;;;;;;-1.21;88.75;99433.38;5051622;28;866;-58
2022/03/03 01:07:18;;;;;;;;;;;;;;;-1.17;88.59;99431.56;5051993;28;1949;-58
2022/03/03 01:09:44;;;;;;;;;;;;;;;-1.11;89.05;99438.38;5056072;28;791;-58
2022/03/03 01:12:10;;;;;;;;;;;;;;;-1.07;88.76;99442.81;5055505;28;847;-59
2022/03/03 01:14:37;;;;;;;;;;;;;;;-1.01;88.93;99437.97;5055311;28;796;-59
2022/03/03 01:17:04;;;;;;;;;;;;;;;-0.92;89.02;99435.16;5055491;28;916;-58
2022/03/03 01:19:30;;;;;;;;;;;;;;;-0.85;88.48;99436.22;5055243;28;906;-58
2022/03/03 01:21:57;;;;;;;;;;;;;;;-0.74;88.58;99430.38;5055323;28;879;-58
2022/03/03 01:24:24;;;;;;;;;;;;;;;-0.61;88.42;99429.25;5055213;28;873;-58
2022/03/03 01:26:51;;;;;;;;;;;;;;;-0.46;87.59;99430.53;5055151;28;1895;-58
2022/03/03 01:29:17;;;;;;;;;;;;;;;-0.46;87.70;99430.53;5055123;28;918;-58
2022/03/03 01:31:44;;;;;;;;;;;;;;;-0.48;87.59;99425.44;5055033;28;890;-59
2022/03/03 01:34:11;;;;;;;;;;;;;;;-0.47;87.68;99426.22;5055022;28;905;-58
2022/03/03 01:36:37;;;;;;;;;;;;;;;-0.50;87.54;99424.19;5054921;28;883;-59
2022/03/03 01:39:05;;;;;;;;;;;;;;;-0.55;87.31;99419.78;5055281;28;819;-58
2022/03/03 01:41:32;;;;;;;;;;;;;;;-0.55;87.51;99419.78;5053373;28;1397;-58
2022/03/03 01:43:59;;;;;;;;;;;;;;;-0.35;87.15;99420.03;5054774;28;795;-58
2022/03/03 01:46:25;;;;;;;;;;;;;;;-0.30;86.54;99417.88;5054689;28;1985;-58
2022/03/03 01:48:51;;;;;;;;;;;;;;;-0.36;86.54;99413.81;5054830;28;886;-58
2022/03/03 01:51:18;;;;;;;;;;;;;;;-0.49;86.66;99412.19;5054990;28;838;-59
2022/03/03 01:53:44;;;;;;;;;;;;;;;-0.36;86.70;99411.09;5054713;28;804;-58
2022/03/03 01:56:11;;;;;;;;;;;;;;;-0.21;85.99;99421.28;5054582;28;873;-58
2022/03/03 01:58:36;;;;;;;;;;;;;;;-0.14;85.81;99422.63;5054600;28;839;-58
2022/03/03 02:01:03;;;;;;;;;;;;;;;-0.10;85.63;99421.63;5054476;28;827;-58
2022/03/03 02:03:30;;;;;;;;;;;;;;;-0.04;85.23;99417.53;5053280;28;1457;-58
2022/03/03 02:05:57;;;;;;;;;;;;;;;-0.04;85.38;99425.69;5054336;28;1945;-58
2022/03/03 02:08:23;;;;;;;;;;;;;;;-0.03;85.46;99421.03;5054526;28;819;-58
2022/03/03 02:10:52;;;;;;;;;;;;;;;-0.01;85.10;99416.06;5054320;28;878;-58
2022/03/03 02:13:18;;;;;;;;;;;;;;;0.02;85.07;99430.88;5052883;28;1297;-58
2022/03/03 02:15:50;;;;;;;;;;;;;;;0.07;84.64;99419.81;5054304;28;839;-58
2022/03/03 02:18:16;;;;;;;;;;;;;;;0.16;83.85;99410.38;5053881;28;918;-58
2022/03/03 02:20:43;;;;;;;;;;;;;;;0.20;83.55;99410.50;5054143;28;896;-58
2022/03/03 02:23:10;;;;;;;;;;;;;;;0.20;83.27;99402.34;5054095;28;929;-58
2022/03/03 02:25:36;;;;;;;;;;;;;;;0.24;82.73;99399.72;5054106;28;1933;-59
2022/03/03 02:28:03;;;;;;;;;;;;;;;0.22;82.46;99397.34;5054240;28;921;-58
2022/03/03 02:30:29;;;;;;;;;;;;;;;0.18;82.23;99399.16;5054116;28;890;-58
2022/03/03 02:32:56;;;;;;;;;;;;;;;0.22;82.23;99408.22;5053922;28;811;-58
2022/03/03 02:35:22;;;;;;;;;;;;;;;0.22;82.31;99407.44;5053840;28;899;-58
2022/03/03 02:37:48;;;;;;;;;;;;;;;0.20;82.55;99414.00;5053867;28;854;-58
2022/03/03 02:40:20;;;;;;;;;;;;;;;0.19;82.45;99414.31;5053856;28;803;-58
2022/03/03 02:42:47;;;;;;;;;;;;;;;0.19;81.93;99406.16;5053545;28;1429;-58
2022/03/03 02:45:14;;;;;;;;;;;;;;;0.25;82.19;99417.63;5053642;28;1017;-58
2022/03/03 02:47:41;;;;;;;;;;;;;;;0.27;82.20;99405.25;5053617;28;1981;-58
2022/03/03 02:50:11;;;;;;;;;;;;;;;0.26;82.02;99409.13;5053628;28;811;-58
2022/03/03 02:52:37;;;;;;;;;;;;;;;0.25;82.05;99402.09;5053611;28;905;-58
2022/03/03 02:55:04;;;;;;;;;;;;;;;0.27;81.68;99399.81;5053459;28;899;-58
2022/03/03 03:00:16;;;;;;;;;;;;;;;0.39;80.09;99386.19;5053482;28;625;-58
2022/03/03 03:02:43;;;;;;;;;;;;;;;0.37;80.36;99390.41;5053386;28;889;-58
2022/03/03 03:05:09;;;;;;;;;;;;;;;0.36;80.49;99402.41;5068737;28;854;-58
2022/03/03 03:07:36;;;;;;;;;;;;;;;0.34;80.24;99393.78;5053272;28;1957;-58
2022/03/03 03:10:04;;;;;;;;;;;;;;;0.38;80.31;99389.25;5053308;28;898;-58
2022/03/03 03:12:30;;;;;;;;;;;;;;;0.38;80.03;99384.63;5053094;28;855;-59
2022/03/03 03:14:57;;;;;;;;;;;;;;;0.32;80.10;99382.47;5053231;28;839;-57
2022/03/03 03:17:23;;;;;;;;;;;;;;;0.27;80.36;99380.00;5053325;28;1001;-58
2022/03/03 03:19:50;;;;;;;;;;;;;;;0.17;80.89;99387.50;5053084;28;906;-58
2022/03/03 03:22:16;;;;;;;;;;;;;;;0.15;80.80;99388.97;5052961;28;842;-57
2022/03/03 03:24:42;;;;;;;;;;;;;;;0.19;80.97;99390.69;5052975;28;910;-58
2022/03/03 03:27:09;;;;;;;;;;;;;;;0.22;80.93;99402.78;5052893;28;1953;-59
2022/03/03 03:29:36;;;;;;;;;;;;;;;0.29;80.58;99389.41;5052851;28;862;-58
2022/03/03 03:32:02;;;;;;;;;;;;;;;0.35;80.24;99390.75;5052388;28;890;-58
2022/03/03 03:34:28;;;;;;;;;;;;;;;0.34;80.11;99394.63;5052821;28;823;-58
2022/03/03 03:36:54;;;;;;;;;;;;;;;0.31;80.52;99389.06;5052701;28;953;-59
2022/03/03 03:39:21;;;;;;;;;;;;;;;0.29;80.42;99389.41;5052664;28;839;-58
2022/03/03 03:41:47;;;;;;;;;;;;;;;0.28;80.33;99382.38;5052345;28;1300;-58
2022/03/03 03:44:14;;;;;;;;;;;;;;;0.25;80.58;99391.22;5052525;28;867;-59
2022/03/03 03:46:40;;;;;;;;;;;;;;;0.23;80.67;99390.75;5052458;28;1918;-60
2022/03/03 03:49:06;;;;;;;;;;;;;;;0.24;80.74;99391.59;5052794;28;811;-59
2022/03/03 03:51:33;;;;;;;;;;;;;;;0.27;80.40;99394.38;5052490;28;851;-58
2022/03/03 03:53:59;;;;;;;;;;;;;;;0.34;80.31;99393.78;5052353;28;1008;-59
2022/03/03 03:56:26;;;;;;;;;;;;;;;0.36;80.53;99394.25;5052356;28;894;-57
2022/03/03 03:58:52;;;;;;;;;;;;;;;0.34;80.01;99391.06;5052299;28;903;-58
2022/03/03 04:01:19;;;;;;;;;;;;;;;0.33;80.27;99389.50;5052263;28;865;-59
2022/03/03 04:03:45;;;;;;;;;;;;;;;0.29;80.19;99385.88;5052350;28;799;-58
2022/03/03 04:06:12;;;;;;;;;;;;;;;0.32;80.42;99385.19;5052098;28;1894;-59
2022/03/03 04:08:38;;;;;;;;;;;;;;;0.31;79.99;99383.63;5067695;28;884;-59
2022/03/03 04:11:04;;;;;;;;;;;;;;;0.28;80.37;99387.00;5052255;28;878;-59
2022/03/03 04:13:31;;;;;;;;;;;;;;;0.28;80.35;99387.81;5052361;28;866;-59
2022/03/03 04:15:57;;;;;;;;;;;;;;;0.27;80.71;99388.16;5052499;28;787;-59
2022/03/03 04:18:24;;;;;;;;;;;;;;;0.26;80.55;99381.94;5052506;28;930;-58
2022/03/03 04:20:50;;;;;;;;;;;;;;;0.27;80.19;99383.50;5051099;28;748;-60
2022/03/03 04:23:17;;;;;;;;;;;;;;;0.28;80.28;99382.38;5051954;28;1017;-59
2022/03/03 04:25:44;;;;;;;;;;;;;;;0.30;80.14;99380.13;5051752;28;1914;-59
2022/03/03 04:28:10;;;;;;;;;;;;;;;0.32;80.03;99382.47;5051715;28;919;-59
2022/03/03 04:30:37;;;;;;;;;;;;;;;0.30;80.07;99379.31;5051781;28;795;-59
2022/03/03 04:33:03;;;;;;;;;;;;;;;0.25;80.61;99382.28;5051702;28;948;-60
2022/03/03 04:35:29;;;;;;;;;;;;;;;0.26;80.42;99378.44;5051753;28;803;-59
2022/03/03 04:37:56;;;;;;;;;;;;;;;0.26;80.10;99378.44;5051658;28;922;-59
2022/03/03 04:40:23;;;;;;;;;;;;;;;0.21;80.27;99374.00;5051799;28;806;-59
2022/03/03 04:42:50;;;;;;;;;;;;;;;0.13;80.54;99383.09;5051335;28;1233;-59
2022/03/03 04:45:16;;;;;;;;;;;;;;;0.07;80.80;99385.25;5051518;28;917;-59
2022/03/03 04:47:43;;;;;;;;;;;;;;;0.05;80.97;99384.81;5051478;28;1906;-59
2022/03/03 04:50:09;;;;;;;;;;;;;;;0.11;81.07;99386.16;5051685;28;822;-59
2022/03/03 04:52:36;;;;;;;;;;;;;;;0.16;80.95;99385.13;5051459;28;799;-59
2022/03/03 04:55:04;;;;;;;;;;;;;;;0.15;80.61;99395.22;5051460;28;902;-59
2022/03/03 04:57:31;;;;;;;;;;;;;;;0.15;81.36;99392.50;5051662;28;851;-59
2022/03/03 04:59:57;;;;;;;;;;;;;;;0.19;80.72;99384.44;5051405;28;899;-59
2022/03/03 05:02:24;;;;;;;;;;;;;;;0.23;80.47;99388.03;5051397;28;913;-59
2022/03/03 05:04:49;;;;;;;;;;;;;;;0.24;80.77;99394.28;5051288;28;1153;-59
2022/03/03 05:07:16;;;;;;;;;;;;;;;0.28;80.89;99393.25;5051258;28;1943;-59
2022/03/03 05:09:43;;;;;;;;;;;;;;;0.35;80.69;99398.13;5051165;28;853;-59
2022/03/03 05:12:10;;;;;;;;;;;;;;;0.40;80.63;99395.94;5051355;28;823;-59
2022/03/03 05:14:36;;;;;;;;;;;;;;;0.45;80.04;99408.50;5051182;28;938;-59
2022/03/03 05:17:03;;;;;;;;;;;;;;;0.49;80.26;99409.41;5051333;28;937;-59
2022/03/03 05:19:28;;;;;;;;;;;;;;;0.54;80.36;99411.09;5051218;28;930;-59
2022/03/03 05:21:55;;;;;;;;;;;;;;;0.54;80.63;99406.44;5051317;28;835;-59
2022/03/03 05:24:21;;;;;;;;;;;;;;;0.53;80.55;99409.50;5051164;28;837;-59
2022/03/03 05:26:48;;;;;;;;;;;;;;;0.53;80.52;99398.63;5051245;28;1886;-59
2022/03/03 05:29:14;;;;;;;;;;;;;;;0.51;80.27;99404.44;5051178;28;799;-59
2022/03/03 05:31:41;;;;;;;;;;;;;;;0.51;80.17;99403.59;5051392;28;1074;-59
2022/03/03 05:34:08;;;;;;;;;;;;;;;0.46;80.04;99393.78;5051447;28;863;-59
2022/03/03 05:36:39;;;;;;;;;;;;;;;0.44;80.51;99395.25;5050962;28;958;-59
2022/03/03 05:39:06;;;;;;;;;;;;;;;0.36;80.80;99396.97;5050983;28;839;-59
2022/03/03 05:41:34;;;;;;;;;;;;;;;0.31;80.99;99399.94;5050709;28;1288;-59
2022/03/03 05:44:01;;;;;;;;;;;;;;;0.33;80.85;99405.81;5049848;28;819;-59
2022/03/03 05:46:28;;;;;;;;;;;;;;;0.38;81.00;99395.50;5050887;28;1902;-59
2022/03/03 05:48:54;;;;;;;;;;;;;;;0.47;80.98;99400.00;5050935;28;977;-59
2022/03/03 05:51:21;;;;;;;;;;;;;;;0.57;81.00;99402.22;5049648;28;2137;-59
2022/03/03 05:53:47;;;;;;;;;;;;;;;0.72;81.05;99395.28;5052143;28;952;-59
2022/03/03 05:56:17;;;;;;;;;;;;;;;0.86;80.57;99392.94;5054619;28;891;-59
2022/03/03 05:58:47;;;;;;;;;;;;;;;0.99;80.63;99393.69;5054615;28;873;-59
2022/03/03 06:01:14;;;;;;;;;;;;;;;1.06;80.43;99399.31;5054598;28;1039;-59
2022/03/03 06:03:41;;;;;;;;;;;;;;;1.08;80.22;99394.31;5054529;28;887;-59
2022/03/03 06:06:07;;;;;;;;;;;;;;;1.11;80.28;99396.34;5054351;28;1949;-59
2022/03/03 06:08:39;;;;;;;;;;;;;;;1.21;79.57;99397.75;5054406;28;851;-59
2022/03/03 06:11:10;;;;;;;;;;;;;;;1.35;79.16;99400.84;5053215;28;1442;-59
2022/03/03 06:13:39;;;;;;;;;;;;;;;1.51;79.13;99406.28;5054321;28;832;-59
2022/03/03 06:16:05;;;;;;;;;;;;;;;1.60;78.38;99408.84;5054423;28;819;-59
2022/03/03 06:18:32;;;;;;;;;;;;;;;1.71;78.18;99407.19;5054655;28;990;-59
2022/03/03 06:20:59;;;;;;;;;;;;;;;1.80;78.21;99420.63;5054156;28;872;-59
2022/03/03 06:23:26;;;;;;;;;;;;;;;1.89;78.45;99415.00;5054121;28;854;-59
2022/03/03 06:26:03;;;;;;;;;;;;;;;2.00;78.21;99421.47;5054052;28;1881;-59
2022/03/03 06:28:30;;;;;;;;;;;;;;;2.13;77.11;99420.22;5054357;28;815;-59
2022/03/03 06:30:57;;;;;;;;;;;;;;;2.23;76.38;99427.06;5054081;28;802;-59
2022/03/03 06:33:25;;;;;;;;;;;;;;;2.41;75.67;99420.09;5054003;28;791;-58
2022/03/03 06:35:51;;;;;;;;;;;;;;;2.56;74.80;99425.81;5054173;28;888;-59
2022/03/03 06:38:18;;;;;;;;;;;;;;;2.63;74.46;99418.59;5053749;28;850;-59
2022/03/03 06:40:44;;;;;;;;;;;;;;;2.81;73.91;99431.81;5053890;28;889;-59
2022/03/03 06:43:11;;;;;;;;;;;;;;;2.92;73.20;99432.78;5053370;28;1294;-58
2022/03/03 06:45:37;;;;;;;;;;;;;;;3.05;72.62;99427.97;5053778;28;1914;-58
2022/03/03 06:48:04;;;;;;;;;;;;;;;3.15;71.83;99426.59;5053870;28;894;-58
2022/03/03 06:50:35;;;;;;;;;;;;;;;3.17;71.04;99435.22;5053886;28;787;-58
2022/03/03 06:53:02;;;;;;;;;;;;;;;3.15;70.74;99432.84;5053573;28;950;-58
2022/03/03 06:55:30;;;;;;;;;;;;;;;3.28;70.76;99444.41;5053587;28;795;-58
2022/03/03 06:57:57;;;;;;;;;;;;;;;3.43;70.43;99440.78;5053493;28;923;-59
2022/03/03 07:00:26;;;;;;;;;;;;;;;3.62;70.49;99447.34;5053430;28;823;-59
2022/03/03 07:02:53;;;;;;;;;;;;;;;3.96;69.24;99442.06;5053464;28;850;-58
2022/03/03 07:05:21;;;;;;;;;;;;;;;4.09;69.03;99446.94;5052275;28;918;-58
2022/03/03 07:07:49;;;;;;;;;;;;;;;4.08;68.85;99452.81;5053480;28;1886;-58
2022/03/03 07:10:23;;;;;;;;;;;;;;;4.17;69.18;99447.84;5053758;28;930;-59
2022/03/03 07:12:50;;;;;;;;;;;;;;;4.53;68.74;99447.59;5053296;28;886;-59
2022/03/03 07:15:17;;;;;;;;;;;;;;;4.57;67.07;99445.69;5053254;28;976;-58
2022/03/03 07:17:45;;;;;;;;;;;;;;;4.28;66.65;99442.53;5053450;28;950;-58
2022/03/03 07:20:30;;;;;;;;;;;;;;;4.24;67.21;99441.69;5053103;28;841;-58
2022/03/03 07:22:59;;;;;;;;;;;;;;;4.06;67.01;99441.44;5053064;28;875;-58
2022/03/03 07:25:32;;;;;;;;;;;;;;;3.85;66.81;99442.66;5053375;28;811;-58
2022/03/03 07:28:01;;;;;;;;;;;;;;;3.91;67.78;99440.44;5052847;28;1921;-58
2022/03/03 07:30:29;;;;;;;;;;;;;;;4.00;67.87;99435.50;5053128;28;1897;-59
2022/03/03 07:33:03;;;;;;;;;;;;;;;3.83;68.00;99431.31;5052821;28;864;-58
2022/03/03 07:35:33;;;;;;;;;;;;;;;3.77;68.54;99437.47;5052722;28;847;-58
2022/03/03 07:38:05;;;;;;;;;;;;;;;3.59;68.37;99424.28;5052685;28;964;-58
2022/03/03 07:40:32;;;;;;;;;;;;;;;3.66;69.73;99431.81;5052763;28;870;-58
2022/03/03 07:42:59;;;;;;;;;;;;;;;3.75;69.17;99432.34;5052337;28;1193;-58
2022/03/03 07:45:26;;;;;;;;;;;;;;;3.91;69.53;99439.66;5052654;28;914;-58
2022/03/03 07:47:55;;;;;;;;;;;;;;;4.11;68.96;99435.66;5052490;28;1906;-58
2022/03/03 07:50:22;;;;;;;;;;;;;;;4.42;68.40;99442.75;5052382;28;890;-58
2022/03/03 07:52:49;;;;;;;;;;;;;;;4.56;68.42;99436.69;5052535;28;815;-57
2022/03/03 07:55:15;;;;;;;;;;;;;;;5.05;67.48;99432.19;5052480;28;875;-59
2022/03/03 07:57:47;;;;;;;;;;;;;;;6.00;64.44;99432.75;5052210;28;929;-59
2022/03/03 08:00:13;;;;;;;;;;;;;;;6.99;61.59;99419.94;5052307;28;863;-59
2022/03/03 08:02:41;;;;;;;;;;;;;;;7.02;60.46;99430.13;5052218;28;906;-59
2022/03/03 08:05:08;;;;;;;;;;;;;;;6.64;59.67;99418.63;5052511;28;946;-59
2022/03/03 08:07:40;;;;;;;;;;;;;;;6.97;58.45;99416.78;5051995;28;1886;-59
2022/03/03 08:10:06;;;;;;;;;;;;;;;7.16;59.13;99413.69;5052593;28;928;-59
2022/03/03 08:12:33;;;;;;;;;;;;;;;6.89;57.74;99419.53;5052830;28;858;-59
2022/03/03 08:14:59;;;;;;;;;;;;;;;6.71;59.70;99424.16;5067519;28;1195;-59
2022/03/03 08:17:26;;;;;;;;;;;;;;;6.22;58.64;99418.00;5051927;28;888;-59
2022/03/03 08:19:54;;;;;;;;;;;;;;;5.73;60.57;99421.91;5051945;28;878;-59
2022/03/03 08:22:24;;;;;;;;;;;;;;;5.42;61.91;99432.22;5052673;28;798;-59
2022/03/03 08:24:53;;;;;;;;;;;;;;;5.22;61.91;99428.06;5051894;28;905;-59
2022/03/03 08:27:20;;;;;;;;;;;;;;;5.26;62.88;99426.16;5051897;28;1959;-59
2022/03/03 08:29:47;;;;;;;;;;;;;;;5.29;62.61;99417.19;5052042;28;811;-59
2022/03/03 08:32:16;;;;;;;;;;;;;;;5.43;63.27;99420.06;5051841;28;859;-59
2022/03/03 08:34:43;;;;;;;;;;;;;;;5.64;62.52;99416.75;5050472;28;1205;-59
2022/03/03 08:37:18;;;;;;;;;;;;;;;6.01;61.97;99420.59;5051607;28;882;-59
2022/03/03 08:39:46;;;;;;;;;;;;;;;6.23;60.20;99416.84;5050434;28;827;-59
2022/03/03 08:42:15;;;;;;;;;;;;;;;6.44;60.72;99410.66;5051493;28;1404;-59
2022/03/03 08:44:42;;;;;;;;;;;;;;;7.05;60.06;99419.16;5051643;28;902;-59
2022/03/03 08:47:11;;;;;;;;;;;;;;;7.63;58.86;99411.03;5051725;28;1906;-59
2022/03/03 08:49:40;;;;;;;;;;;;;;;7.80;55.71;99414.97;5051800;28;879;-59
2022/03/03 08:52:07;;;;;;;;;;;;;;;7.87;56.74;99418.53;5051703;28;875;-59
2022/03/03 08:54:34;;;;;;;;;;;;;;;7.75;54.39;99416.94;5051711;28;879;-59
2022/03/03 08:57:00;;;;;;;;;;;;;;;7.25;54.82;99416.06;5051703;28;890;-59
2022/03/03 08:59:27;;;;;;;;;;;;;;;6.55;53.86;99429.97;5051907;28;870;-59
2022/03/03 09:01:54;;;;;;;;;;;;;;;6.08;54.84;99417.88;5051505;28;838;-59
2022/03/03 09:04:20;;;;;;;;;;;;;;;6.03;56.06;99421.00;5051339;28;844;-59
2022/03/03 09:06:47;;;;;;;;;;;;;;;6.01;55.42;99417.84;5051179;28;1886;-59
2022/03/03 09:09:13;;;;;;;;;;;;;;;5.92;56.30;99412.66;5051363;28;819;-59
2022/03/03 09:11:39;;;;;;;;;;;;;;;5.84;55.68;99419.25;5051280;28;926;-59
2022/03/03 09:14:07;;;;;;;;;;;;;;;6.01;55.40;99420.59;5051535;28;851;-59
2022/03/03 09:16:34;;;;;;;;;;;;;;;6.34;54.92;99414.16;5051191;28;946;-59
2022/03/03 09:19:00;;;;;;;;;;;;;;;6.57;55.27;99418.56;5051335;28;882;-59
2022/03/03 09:21:28;;;;;;;;;;;;;;;6.97;53.44;99416.78;5051221;28;839;-59
2022/03/03 09:23:55;;;;;;;;;;;;;;;7.40;51.67;99419.66;5051172;28;862;-59
2022/03/03 09:26:22;;;;;;;;;;;;;;;7.33;52.72;99421.19;5051374;28;1933;-59
2022/03/03 09:28:48;;;;;;;;;;;;;;;7.44;52.39;99415.72;5052249;28;815;-59
2022/03/03 09:31:15;;;;;;;;;;;;;;;7.52;53.08;99425.56;5055055;28;898;-59
2022/03/03 09:33:43;;;;;;;;;;;;;;;7.15;52.33;99415.66;5055087;28;819;-59
2022/03/03 09:36:09;;;;;;;;;;;;;;;6.90;53.31;99417.56;5054882;28;859;-59
2022/03/03 09:38:35;;;;;;;;;;;;;;;6.74;53.16;99426.91;5055003;28;803;-59
2022/03/03 09:41:02;;;;;;;;;;;;;;;6.71;54.26;99421.41;5055325;28;827;-59
2022/03/03 09:43:28;;;;;;;;;;;;;;;6.86;53.55;99422.25;5054665;28;1225;-59
2022/03/03 09:45:54;;;;;;;;;;;;;;;7.12;52.51;99423.91;5054830;28;1905;-59
2022/03/03 09:48:21;;;;;;;;;;;;;;;7.09;51.68;99419.19;5070288;28;807;-59
2022/03/03 09:50:47;;;;;;;;;;;;;;;7.29;52.89;99417.66;5054819;28;815;-59
2022/03/03 09:53:16;;;;;;;;;;;;;;;8.01;51.84;99412.22;5054751;28;795;-59
2022/03/03 09:55:44;;;;;;;;;;;;;;;8.42;50.56;99406.25;5054623;28;937;-59
2022/03/03 09:58:10;;;;;;;;;;;;;;;8.04;50.83;99413.38;5054680;28;870;-59
2022/03/03 10:00:39;;;;;;;;;;;;;;;8.08;49.81;99414.16;5054588;28;864;-59
2022/03/03 10:03:10;;;;;;;;;;;;;;;7.87;50.17;99401.19;5054554;28;1027;-58
2022/03/03 10:05:38;;;;;;;;;;;;;;;8.20;50.20;99413.75;5054682;28;829;-59
2022/03/03 10:08:06;;;;;;;;;;;;;;;8.39;48.69;99405.06;5054764;28;1945;-59
2022/03/03 10:10:35;;;;;;;;;;;;;;;8.27;48.74;99404.69;5054474;28;870;-59
2022/03/03 10:13:01;;;;;;;;;;;;;;;8.04;49.12;99400.41;5054414;28;863;-58
2022/03/03 10:15:28;;;;;;;;;;;;;;;7.21;49.41;99398.78;5054406;28;862;-59
2022/03/03 10:18:01;;;;;;;;;;;;;;;6.64;50.95;99402.94;5054621;28;946;-59
2022/03/03 10:20:28;;;;;;;;;;;;;;;6.49;51.99;99398.53;5054492;28;882;-59
2022/03/03 10:22:58;;;;;;;;;;;;;;;6.84;51.06;99395.16;5052904;28;1325;-59
2022/03/03 10:25:29;;;;;;;;;;;;;;;6.95;50.78;99395.19;5054093;28;956;-59
2022/03/03 10:27:56;;;;;;;;;;;;;;;7.12;50.81;99385.41;5053998;28;1893;-59
2022/03/03 10:30:23;;;;;;;;;;;;;;;7.29;51.16;99381.13;5054014;28;917;-59
2022/03/03 10:32:50;;;;;;;;;;;;;;;8.10;49.89;99390.56;5069388;28;854;-59
2022/03/03 10:35:17;;;;;;;;;;;;;;;8.35;49.93;99376.75;5052637;28;1332;-59
2022/03/03 10:37:45;;;;;;;;;;;;;;;7.77;49.87;99380.78;5053924;28;916;-59
2022/03/03 10:40:13;;;;;;;;;;;;;;;7.05;50.68;99390.91;5053818;28;847;-59
2022/03/03 10:42:44;;;;;;;;;;;;;;;6.60;51.68;99382.13;5053512;28;1223;-58
2022/03/03 10:45:11;;;;;;;;;;;;;;;6.29;51.83;99395.28;5053973;28;972;-59
2022/03/03 10:47:43;;;;;;;;;;;;;;;6.21;52.56;99388.16;5053931;28;1917;-59
2022/03/03 10:50:09;;;;;;;;;;;;;;;6.05;52.25;99388.47;5053714;28;855;-59
2022/03/03 10:52:39;;;;;;;;;;;;;;;6.02;52.83;99386.50;5053564;28;871;-59
2022/03/03 10:55:08;;;;;;;;;;;;;;;6.08;52.88;99393.19;5053512;28;881;-59
2022/03/03 10:57:58;;;;;;;;;;;;;;;6.36;52.95;99389.84;5053576;28;927;-59
2022/03/03 11:00:26;;;;;;;;;;;;;;;6.56;52.48;99392.31;5053693;28;942;-59
2022/03/03 11:02:58;;;;;;;;;;;;;;;6.74;52.52;99387.66;5053379;28;795;-59
2022/03/03 11:05:26;;;;;;;;;;;;;;;6.90;52.29;99379.88;5053678;28;862;-59
2022/03/03 11:07:53;;;;;;;;;;;;;;;7.03;52.12;99382.25;5053578;28;1954;-59
2022/03/03 11:10:21;;;;;;;;;;;;;;;7.28;52.10;99374.84;5053246;28;933;-59
2022/03/03 11:12:48;;;;;;;;;;;;;;;7.65;51.86;99381.19;5053950;28;732;-59
2022/03/03 11:15:17;;;;;;;;;;;;;;;7.44;51.02;99377.22;5053909;28;820;-59
2022/03/03 11:17:44;;;;;;;;;;;;;;;7.02;51.05;99372.44;5053602;28;984;-59
2022/03/03 11:20:12;;;;;;;;;;;;;;;7.26;52.63;99374.47;5053632;28;820;-60
2022/03/03 11:22:40;;;;;;;;;;;;;;;7.59;51.13;99369.00;5053065;28;914;-59
2022/03/03 11:25:11;;;;;;;;;;;;;;;7.76;50.44;99362.69;5053068;28;981;-59
2022/03/03 11:27:39;;;;;;;;;;;;;;;7.94;49.71;99371.72;5052852;28;1898;-59
2022/03/03 11:30:12;;;;;;;;;;;;;;;7.98;47.84;99369.75;5052945;28;795;-59
2022/03/03 11:32:39;;;;;;;;;;;;;;;8.10;48.65;99365.00;5052752;28;815;-59
2022/03/03 11:35:09;;;;;;;;;;;;;;;7.87;48.75;99369.00;5052806;28;926;-59
2022/03/03 11:37:39;;;;;;;;;;;;;;;7.40;48.98;99365.44;5052745;28;808;-59
2022/03/03 11:40:06;;;;;;;;;;;;;;;7.19;48.98;99368.16;5053517;28;772;-58
2022/03/03 11:42:36;;;;;;;;;;;;;;;7.08;48.59;99368.94;5052646;28;1252;-60
2022/03/03 11:45:03;;;;;;;;;;;;;;;6.95;50.11;99370.47;5052838;28;886;-60
2022/03/03 11:47:34;;;;;;;;;;;;;;;7.00;49.87;99367.34;5052502;28;1914;-59
2022/03/03 11:50:03;;;;;;;;;;;;;;;7.01;48.83;99360.66;5052493;28;855;-59
2022/03/03 11:52:30;;;;;;;;;;;;;;;7.32;49.36;99369.38;5051990;28;811;-59
2022/03/03 11:54:59;;;;;;;;;;;;;;;7.77;48.72;99367.81;5052533;28;828;-59
2022/03/03 11:57:28;;;;;;;;;;;;;;;8.47;47.54;99372.81;5052388;28;875;-59
2022/03/03 12:00:05;;;;;;;;;;;;;;;8.39;46.07;99366.50;5052634;28;964;-59
2022/03/03 12:02:33;;;;;;;;;;;;;;;8.38;47.17;99370.47;5052476;28;830;-59
2022/03/03 12:05:17;;;;;;;;;;;;;;;8.20;47.24;99363.44;5052436;28;851;-59
2022/03/03 12:07:46;;;;;;;;;;;;;;;8.45;45.82;99357.84;5052180;28;1890;-59
2022/03/03 12:10:18;;;;;;;;;;;;;;;8.82;45.73;99359.31;5052409;28;885;-59
2022/03/03 12:12:46;;;;;;;;;;;;;;;8.68;45.83;99355.41;5052217;28;862;-59
2022/03/03 12:15:12;;;;;;;;;;;;;;;8.37;45.34;99366.13;5052144;28;838;-59
2022/03/03 12:17:43;;;;;;;;;;;;;;;8.52;45.56;99366.91;5052352;28;997;-59
2022/03/03 12:20:29;;;;;;;;;;;;;;;9.03;45.12;99359.19;5067296;28;879;-58
2022/03/03 12:23:10;;;;;;;;;;;;;;;8.56;45.42;99364.13;5052059;28;882;-59
2022/03/03 12:25:54;;;;;;;;;;;;;;;8.60;45.53;99362.16;5052199;28;807;-59
2022/03/03 12:28:23;;;;;;;;;;;;;;;8.48;46.84;99355.09;5051803;28;965;-59
2022/03/03 12:30:50;;;;;;;;;;;;;;;8.57;46.19;99365.69;5051845;28;843;-59
2022/03/03 12:33:24;;;;;;;;;;;;;;;8.86;44.30;99363.59;5051671;28;934;-59
2022/03/03 12:35:52;;;;;;;;;;;;;;;9.09;43.74;99357.56;5051685;28;1478;-59
2022/03/03 12:38:19;;;;;;;;;;;;;;;9.18;44.39;99355.16;5051764;28;893;-59
2022/03/03 12:40:47;;;;;;;;;;;;;;;9.37;42.72;99350.31;5051713;28;855;-59
2022/03/03 12:43:16;;;;;;;;;;;;;;;10.04;42.14;99352.88;5051500;28;1259;-59
2022/03/03 12:45:43;;;;;;;;;;;;;;;10.09;42.68;99360.72;5051583;28;945;-59
2022/03/03 12:48:11;;;;;;;;;;;;;;;9.75;42.70;99355.91;5051629;28;1943;-59
2022/03/03 12:50:39;;;;;;;;;;;;;;;9.71;41.95;99346.88;5051575;28;901;-59
2022/03/03 12:53:08;;;;;;;;;;;;;;;9.33;40.44;99360.56;5051472;28;895;-59
2022/03/03 12:55:44;;;;;;;;;;;;;;;9.46;42.13;99355.34;5051487;28;992;-58
2022/03/03 12:58:13;;;;;;;;;;;;;;;9.64;41.08;99352.44;5051936;28;894;-58
2022/03/03 13:00:41;;;;;;;;;;;;;;;9.92;41.28;99363.25;5051447;28;803;-59
2022/03/03 13:03:08;;;;;;;;;;;;;;;10.31;39.87;99356.56;5050404;28;921;-57
2022/03/03 13:05:38;;;;;;;;;;;;;;;10.80;39.79;99353.63;5051653;28;795;-58
2022/03/03 13:08:06;;;;;;;;;;;;;;;11.35;39.17;99348.88;5051219;28;1877;-59
2022/03/03 13:10:35;;;;;;;;;;;;;;;11.40;38.33;99342.91;5051404;28;792;-59
2022/03/03 13:13:03;;;;;;;;;;;;;;;11.21;38.17;99333.31;5051281;28;948;-59
2022/03/03 13:15:47;;;;;;;;;;;;;;;10.52;39.29;99344.50;5051265;28;839;-59
2022/03/03 13:18:21;;;;;;;;;;;;;;;9.87;40.42;99349.88;5051734;28;913;-59
2022/03/03 13:20:57;;;;;;;;;;;;;;;9.76;40.79;99338.16;5051193;28;911;-59